sensor_id;sensor_type;location;lat;lon;timestamp;pressure;altitude;pressure_sealevel;temperature;humidity
12987;BME280;58897;51.960;5.582;2022-08-03T00:01:30;101177.03;;;20.81;83.67
12987;BME280;58897;51.960;5.582;2022-08-03T00:03:56;101178.56;;;20.77;83.08
12987;BME280;58897;51.960;5.582;2022-08-03T00:06:22;101177.13;;;20.68;83.82
12987;BME280;58897;51.960;5.582;2022-08-03T00:08:49;101182.44;;;20.63;83.96
12987;BME280;58897;51.960;5.582;2022-08-03T00:11:15;101168.28;;;20.66;84.65
12987;BME280;58897;51.960;5.582;2022-08-03T00:13:42;101178.66;;;20.64;84.09
12987;BME280;58897;51.960;5.582;2022-08-03T00:16:09;101172.56;;;20.56;85.15
12987;BME280;58897;51.960;5.582;2022-08-03T00:18:36;101173.63;;;20.55;84.41
12987;BME280;58897;51.960;5.582;2022-08-03T00:21:03;101174.97;;;20.46;85.40
12987;BME280;58897;51.960;5.582;2022-08-03T00:23:29;101178.50;;;20.53;84.99
12987;BME280;58897;51.960;5.582;2022-08-03T00:26:16;101167.69;;;20.58;84.75
12987;BME280;58897;51.960;5.582;2022-08-03T00:28:42;101167.66;;;20.33;86.54
12987;BME280;58897;51.960;5.582;2022-08-03T00:31:09;101165.72;;;20.33;86.42
12987;BME280;58897;51.960;5.582;2022-08-03T00:33:39;101164.66;;;20.41;86.29
12987;BME280;58897;51.960;5.582;2022-08-03T00:36:26;101160.03;;;20.35;87.10
12987;BME280;58897;51.960;5.582;2022-08-03T00:38:53;101159.16;;;20.41;86.92
12987;BME280;58897;51.960;5.582;2022-08-03T00:41:19;101166.19;;;20.24;87.63
12987;BME280;58897;51.960;5.582;2022-08-03T00:43:46;101154.75;;;20.33;87.13
12987;BME280;58897;51.960;5.582;2022-08-03T00:46:12;101162.59;;;20.30;87.21
12987;BME280;58897;51.960;5.582;2022-08-03T00:48:47;101162.19;;;20.26;87.61
12987;BME280;58897;51.960;5.582;2022-08-03T00:51:14;101162.59;;;20.30;86.83
12987;BME280;58897;51.960;5.582;2022-08-03T00:53:41;101160.28;;;20.27;87.84
12987;BME280;58897;51.960;5.582;2022-08-03T00:56:12;101158.84;;;20.11;88.16
12987;BME280;58897;51.960;5.582;2022-08-03T00:58:38;101154.41;;;20.10;88.04
12987;BME280;58897;51.960;5.582;2022-08-03T01:01:05;101152.81;;;19.96;88.21
12987;BME280;58897;51.960;5.582;2022-08-03T01:03:32;101158.44;;;20.08;88.23
12987;BME280;58897;51.960;5.582;2022-08-03T01:09:01;101154.59;;;20.15;87.27
12987;BME280;58897;51.960;5.582;2022-08-03T01:14:39;101138.44;;;20.01;88.18
12987;BME280;58897;51.960;5.582;2022-08-03T01:17:19;101146.03;;;19.99;88.48
12987;BME280;58897;51.960;5.582;2022-08-03T01:20:09;101142.44;;;19.98;88.05
12987;BME280;58897;51.960;5.582;2022-08-03T01:31:06;101146.91;;;19.93;87.57
12987;BME280;58897;51.960;5.582;2022-08-03T01:33:42;101148.56;;;20.00;88.07
12987;BME280;58897;51.960;5.582;2022-08-03T01:36:12;101148.97;;;19.97;88.79
12987;BME280;58897;51.960;5.582;2022-08-03T01:38:47;101139.28;;;19.95;88.32
12987;BME280;58897;51.960;5.582;2022-08-03T01:41:20;101139.34;;;19.88;89.75
12987;BME280;58897;51.960;5.582;2022-08-03T01:43:49;101139.28;;;19.95;88.74
12987;BME280;58897;51.960;5.582;2022-08-03T01:46:38;101139.53;;;19.87;89.55
12987;BME280;58897;51.960;5.582;2022-08-03T01:49:13;101145.88;;;19.87;88.99
12987;BME280;58897;51.960;5.582;2022-08-03T01:51:41;101145.47;;;19.84;89.56
12987;BME280;58897;51.960;5.582;2022-08-03T01:54:28;101145.84;;;19.94;89.00
12987;BME280;58897;51.960;5.582;2022-08-03T01:56:57;101134.88;;;19.94;88.54
12987;BME280;58897;51.960;5.582;2022-08-03T01:59:25;101133.00;;;19.94;88.88
12987;BME280;58897;51.960;5.582;2022-08-03T02:01:55;101135.94;;;19.93;88.58
12987;BME280;58897;51.960;5.582;2022-08-03T02:04:44;101137.69;;;19.81;88.75
12987;BME280;58897;51.960;5.582;2022-08-03T02:07:13;101135.31;;;19.84;89.80
12987;BME280;58897;51.960;5.582;2022-08-03T02:09:42;101137.91;;;19.73;90.12
12987;BME280;58897;51.960;5.582;2022-08-03T02:12:11;101135.56;;;19.83;89.39
12987;BME280;58897;51.960;5.582;2022-08-03T02:14:40;101144.00;;;19.75;89.47
12987;BME280;58897;51.960;5.582;2022-08-03T02:17:09;101139.81;;;19.72;89.81
12987;BME280;58897;51.960;5.582;2022-08-03T02:19:36;101132.63;;;19.71;90.87
12987;BME280;58897;51.960;5.582;2022-08-03T02:22:04;101131.63;;;19.59;91.43
12987;BME280;58897;51.960;5.582;2022-08-03T02:24:33;101130.19;;;19.50;91.80
12987;BME280;58897;51.960;5.582;2022-08-03T02:27:00;101131.66;;;19.52;91.63
12987;BME280;58897;51.960;5.582;2022-08-03T02:29:31;101130.81;;;19.52;90.82
12987;BME280;58897;51.960;5.582;2022-08-03T02:32:08;101128.72;;;19.41;93.28
12987;BME280;58897;51.960;5.582;2022-08-03T02:34:36;101135.44;;;19.51;92.73
12987;BME280;58897;51.960;5.582;2022-08-03T02:37:03;101129.97;;;19.51;91.52
12987;BME280;58897;51.960;5.582;2022-08-03T02:39:31;101135.84;;;19.61;91.50
12987;BME280;58897;51.960;5.582;2022-08-03T02:42:00;101140.69;;;19.59;91.41
12987;BME280;58897;51.960;5.582;2022-08-03T02:44:32;101133.94;;;19.55;92.29
12987;BME280;58897;51.960;5.582;2022-08-03T02:47:06;101136.47;;;19.57;92.07
12987;BME280;58897;51.960;5.582;2022-08-03T02:49:35;101139.69;;;19.47;92.31
12987;BME280;58897;51.960;5.582;2022-08-03T02:52:22;101133.94;;;19.55;92.19
12987;BME280;58897;51.960;5.582;2022-08-03T02:54:52;101124.72;;;19.50;92.38
12987;BME280;58897;51.960;5.582;2022-08-03T02:57:20;101125.94;;;19.54;91.75
12987;BME280;58897;51.960;5.582;2022-08-03T02:59:48;101123.63;;;19.51;91.97
12987;BME280;58897;51.960;5.582;2022-08-03T03:02:16;101124.25;;;19.53;92.50
12987;BME280;58897;51.960;5.582;2022-08-03T03:04:44;101117.09;;;19.45;92.30
12987;BME280;58897;51.960;5.582;2022-08-03T03:07:32;101116.50;;;19.50;92.45
12987;BME280;58897;51.960;5.582;2022-08-03T03:10:19;101112.06;;;19.49;91.88
12987;BME280;58897;51.960;5.582;2022-08-03T03:12:47;101116.72;;;19.42;92.74
12987;BME280;58897;51.960;5.582;2022-08-03T03:15:15;101110.81;;;19.45;92.83
12987;BME280;58897;51.960;5.582;2022-08-03T03:17:42;101103.41;;;19.45;92.85
12987;BME280;58897;51.960;5.582;2022-08-03T03:20:10;101109.28;;;19.55;92.50
12987;BME280;58897;51.960;5.582;2022-08-03T03:22:37;101111.00;;;19.37;93.69
12987;BME280;58897;51.960;5.582;2022-08-03T03:25:05;101108.69;;;19.27;94.25
12987;BME280;58897;51.960;5.582;2022-08-03T03:27:32;101108.28;;;19.43;92.48
12987;BME280;58897;51.960;5.582;2022-08-03T03:29:59;101107.22;;;19.44;92.99
12987;BME280;58897;51.960;5.582;2022-08-03T03:32:26;101105.09;;;19.46;92.50
12987;BME280;58897;51.960;5.582;2022-08-03T03:34:54;101107.41;;;19.49;92.75
12987;BME280;58897;51.960;5.582;2022-08-03T03:37:21;101110.59;;;19.46;92.34
12987;BME280;58897;51.960;5.582;2022-08-03T03:39:48;101104.69;;;19.36;92.71
12987;BME280;58897;51.960;5.582;2022-08-03T03:42:14;101109.09;;;19.50;92.69
12987;BME280;58897;51.960;5.582;2022-08-03T03:44:41;101106.38;;;19.44;91.57
12987;BME280;58897;51.960;5.582;2022-08-03T03:47:08;101105.94;;;19.40;93.00
12987;BME280;58897;51.960;5.582;2022-08-03T03:49:36;101110.38;;;19.41;93.00
12987;BME280;58897;51.960;5.582;2022-08-03T03:52:03;101109.53;;;19.34;93.31
12987;BME280;58897;51.960;5.582;2022-08-03T03:54:43;101113.97;;;19.29;93.76
12987;BME280;58897;51.960;5.582;2022-08-03T03:57:10;101104.91;;;19.22;94.45
12987;BME280;58897;51.960;5.582;2022-08-03T03:59:40;101117.56;;;18.96;96.16
12987;BME280;58897;51.960;5.582;2022-08-03T04:02:07;101108.72;;;19.07;95.24
12987;BME280;58897;51.960;5.582;2022-08-03T04:04:36;101112.53;;;19.13;95.66
12987;BME280;58897;51.960;5.582;2022-08-03T04:07:23;101119.66;;;19.14;95.81
12987;BME280;58897;51.960;5.582;2022-08-03T04:10:15;101108.28;;;19.17;94.58
12987;BME280;58897;51.960;5.582;2022-08-03T04:13:05;101109.13;;;19.18;94.76
12987;BME280;58897;51.960;5.582;2022-08-03T04:15:37;101114.81;;;19.23;94.24
12987;BME280;58897;51.960;5.582;2022-08-03T04:18:06;101121.34;;;19.28;94.32
12987;BME280;58897;51.960;5.582;2022-08-03T04:20:37;101123.88;;;19.23;94.46
12987;BME280;58897;51.960;5.582;2022-08-03T04:23:05;101118.19;;;19.11;94.45
12987;BME280;58897;51.960;5.582;2022-08-03T04:25:41;101114.41;;;19.13;95.27
12987;BME280;58897;51.960;5.582;2022-08-03T04:28:09;101115.66;;;19.17;95.26
12987;BME280;58897;51.960;5.582;2022-08-03T04:30:55;101117.78;;;19.21;94.25
12987;BME280;58897;51.960;5.582;2022-08-03T04:33:25;101118.81;;;19.20;94.61
12987;BME280;58897;51.960;5.582;2022-08-03T04:35:56;101123.47;;;19.06;95.26
12987;BME280;58897;51.960;5.582;2022-08-03T04:38:30;101127.88;;;19.21;95.00
12987;BME280;58897;51.960;5.582;2022-08-03T04:40:58;101135.03;;;19.22;94.35
12987;BME280;58897;51.960;5.582;2022-08-03T04:43:26;101127.88;;;19.14;94.48
12987;BME280;58897;51.960;5.582;2022-08-03T04:45:54;101132.50;;;19.20;94.20
12987;BME280;58897;51.960;5.582;2022-08-03T04:48:22;101128.72;;;19.28;94.28
12987;BME280;58897;51.960;5.582;2022-08-03T04:50:48;101124.06;;;19.28;93.46
12987;BME280;58897;51.960;5.582;2022-08-03T04:53:15;101125.34;;;19.39;93.50
12987;BME280;58897;51.960;5.582;2022-08-03T04:55:43;101129.34;;;19.43;93.19
12987;BME280;58897;51.960;5.582;2022-08-03T04:58:09;101131.66;;;19.33;94.24
12987;BME280;58897;51.960;5.582;2022-08-03T05:00:36;101136.50;;;19.31;93.39
12987;BME280;58897;51.960;5.582;2022-08-03T05:03:02;101133.34;;;19.21;94.36
12987;BME280;58897;51.960;5.582;2022-08-03T05:05:44;101137.13;;;19.33;93.51
12987;BME280;58897;51.960;5.582;2022-08-03T05:08:15;101141.97;;;19.24;94.44
12987;BME280;58897;51.960;5.582;2022-08-03T05:10:46;101134.59;;;19.31;94.09
12987;BME280;58897;51.960;5.582;2022-08-03T05:13:12;101141.75;;;19.32;93.15
12987;BME280;58897;51.960;5.582;2022-08-03T05:15:40;101138.41;;;19.37;93.59
12987;BME280;58897;51.960;5.582;2022-08-03T05:18:08;101144.94;;;19.42;93.72
12987;BME280;58897;51.960;5.582;2022-08-03T05:20:39;101148.13;;;19.39;93.25
12987;BME280;58897;51.960;5.582;2022-08-03T05:23:06;101149.16;;;19.45;93.34
12987;BME280;58897;51.960;5.582;2022-08-03T05:25:32;101152.09;;;19.30;94.70
12987;BME280;58897;51.960;5.582;2022-08-03T05:27:59;101154.84;;;19.43;93.41
12987;BME280;58897;51.960;5.582;2022-08-03T05:30:26;101152.09;;;19.50;92.91
12987;BME280;58897;51.960;5.582;2022-08-03T05:33:00;101146.81;;;19.48;93.05
12987;BME280;58897;51.960;5.582;2022-08-03T05:35:27;101149.75;;;19.53;93.39
12987;BME280;58897;51.960;5.582;2022-08-03T05:38:14;101155.50;;;19.39;94.58
12987;BME280;58897;51.960;5.582;2022-08-03T05:40:53;101157.78;;;19.55;93.56
12987;BME280;58897;51.960;5.582;2022-08-03T05:43:39;101149.75;;;19.60;93.59
12987;BME280;58897;51.960;5.582;2022-08-03T05:46:05;101154.34;;;19.66;91.98
12987;BME280;58897;51.960;5.582;2022-08-03T05:48:37;101150.56;;;19.67;92.33
12987;BME280;58897;51.960;5.582;2022-08-03T05:51:04;101156.28;;;19.59;92.43
12987;BME280;58897;51.960;5.582;2022-08-03T05:53:33;101155.22;;;19.73;92.04
12987;BME280;58897;51.960;5.582;2022-08-03T05:55:59;101156.44;;;19.84;90.92
12987;BME280;58897;51.960;5.582;2022-08-03T05:58:40;101162.53;;;19.79;91.59
12987;BME280;58897;51.960;5.582;2022-08-03T06:01:07;101158.94;;;19.92;91.52
12987;BME280;58897;51.960;5.582;2022-08-03T06:03:33;101156.16;;;19.98;91.03
12987;BME280;58897;51.960;5.582;2022-08-03T06:06:00;101146.69;;;19.94;90.49
12987;BME280;58897;51.960;5.582;2022-08-03T06:08:26;101147.94;;;19.98;90.73
12987;BME280;58897;51.960;5.582;2022-08-03T06:10:53;101156.59;;;20.02;89.76
12987;BME280;58897;51.960;5.582;2022-08-03T06:13:19;101156.78;;;20.07;90.72
12987;BME280;58897;51.960;5.582;2022-08-03T06:15:45;101161.16;;;20.14;89.48
12987;BME280;58897;51.960;5.582;2022-08-03T06:18:12;101169.88;;;20.05;89.91
12987;BME280;58897;51.960;5.582;2022-08-03T06:20:38;101163.72;;;20.03;89.47
12987;BME280;58897;51.960;5.582;2022-08-03T06:23:05;101161.19;;;20.08;89.24
12987;BME280;58897;51.960;5.582;2022-08-03T06:25:32;101159.69;;;20.12;89.71
12987;BME280;58897;51.960;5.582;2022-08-03T06:27:59;101170.84;;;20.17;89.71
12987;BME280;58897;51.960;5.582;2022-08-03T06:30:25;101169.34;;;20.21;89.27
12987;BME280;58897;51.960;5.582;2022-08-03T06:32:52;101170.84;;;20.23;88.19
12987;BME280;58897;51.960;5.582;2022-08-03T06:35:19;101166.63;;;20.27;88.70
12987;BME280;58897;51.960;5.582;2022-08-03T06:37:49;101170.09;;;20.48;88.22
12987;BME280;58897;51.960;5.582;2022-08-03T06:40:18;101166.38;;;20.67;87.14
12987;BME280;58897;51.960;5.582;2022-08-03T06:42:49;101163.31;;;20.81;86.55
12987;BME280;58897;51.960;5.582;2022-08-03T06:45:16;101173.28;;;21.07;85.16
12987;BME280;58897;51.960;5.582;2022-08-03T06:47:43;101171.31;;;21.39;83.63
12987;BME280;58897;51.960;5.582;2022-08-03T06:50:09;101170.44;;;21.63;83.17
12987;BME280;58897;51.960;5.582;2022-08-03T06:52:43;101165.00;;;21.75;82.11
12987;BME280;58897;51.960;5.582;2022-08-03T06:55:10;101178.91;;;21.80;80.58
12987;BME280;58897;51.960;5.582;2022-08-03T06:57:37;101170.19;;;22.07;78.96
12987;BME280;58897;51.960;5.582;2022-08-03T07:00:03;101165.00;;;22.47;77.18
12987;BME280;58897;51.960;5.582;2022-08-03T07:02:38;101165.44;;;22.74;75.62
12987;BME280;58897;51.960;5.582;2022-08-03T07:05:05;101169.47;;;22.60;75.83
12987;BME280;58897;51.960;5.582;2022-08-03T07:07:32;101180.94;;;22.87;75.25
12987;BME280;58897;51.960;5.582;2022-08-03T07:09:59;101173.28;;;22.89;74.97
12987;BME280;58897;51.960;5.582;2022-08-03T07:12:28;101173.75;;;22.86;74.87
12987;BME280;58897;51.960;5.582;2022-08-03T07:14:55;101163.28;;;22.76;75.89
12987;BME280;58897;51.960;5.582;2022-08-03T07:17:26;101178.38;;;23.15;73.40
12987;BME280;58897;51.960;5.582;2022-08-03T07:19:53;101184.31;;;23.00;74.10
12987;BME280;58897;51.960;5.582;2022-08-03T07:22:19;101174.19;;;23.24;72.40
12987;BME280;58897;51.960;5.582;2022-08-03T07:24:46;101181.25;;;23.20;72.36
12987;BME280;58897;51.960;5.582;2022-08-03T07:27:14;101183.88;;;23.15;73.47
12987;BME280;58897;51.960;5.582;2022-08-03T07:29:41;101186.66;;;23.73;71.84
12987;BME280;58897;51.960;5.582;2022-08-03T07:32:08;101185.09;;;24.00;70.63
12987;BME280;58897;51.960;5.582;2022-08-03T07:34:34;101183.56;;;23.69;69.90
12987;BME280;58897;51.960;5.582;2022-08-03T07:37:01;101192.41;;;23.94;70.36
12987;BME280;58897;51.960;5.582;2022-08-03T07:39:27;101184.28;;;24.68;67.92
12987;BME280;58897;51.960;5.582;2022-08-03T07:41:54;101191.41;;;24.64;67.76
12987;BME280;58897;51.960;5.582;2022-08-03T07:44:20;101191.25;;;24.42;68.29
12987;BME280;58897;51.960;5.582;2022-08-03T07:46:47;101191.59;;;24.74;68.30
12987;BME280;58897;51.960;5.582;2022-08-03T07:49:13;101185.47;;;25.00;66.36
12987;BME280;58897;51.960;5.582;2022-08-03T07:51:40;101181.94;;;25.04;65.63
12987;BME280;58897;51.960;5.582;2022-08-03T07:54:06;101183.28;;;25.02;65.95
12987;BME280;58897;51.960;5.582;2022-08-03T07:56:36;101186.94;;;24.63;67.43
12987;BME280;58897;51.960;5.582;2022-08-03T07:59:02;101185.53;;;24.88;66.09
12987;BME280;58897;51.960;5.582;2022-08-03T08:01:29;101181.59;;;25.01;64.72
12987;BME280;58897;51.960;5.582;2022-08-03T08:03:58;101183.94;;;25.42;64.84
12987;BME280;58897;51.960;5.582;2022-08-03T08:06:24;101182.84;;;25.76;64.07
12987;BME280;58897;51.960;5.582;2022-08-03T08:08:51;101178.97;;;25.77;62.60
12987;BME280;58897;51.960;5.582;2022-08-03T08:11:18;101192.81;;;25.77;63.49
12987;BME280;58897;51.960;5.582;2022-08-03T08:13:47;101176.03;;;26.06;61.74
12987;BME280;58897;51.960;5.582;2022-08-03T08:16:13;101180.22;;;26.25;62.43
12987;BME280;58897;51.960;5.582;2022-08-03T08:18:40;101178.25;;;26.25;60.94
12987;BME280;58897;51.960;5.582;2022-08-03T08:21:06;101177.66;;;26.45;59.65
12987;BME280;58897;51.960;5.582;2022-08-03T08:23:33;101180.66;;;26.65;59.21
12987;BME280;58897;51.960;5.582;2022-08-03T08:26:09;101182.88;;;25.98;60.49
12987;BME280;58897;51.960;5.582;2022-08-03T08:28:36;101178.09;;;27.12;58.67
12987;BME280;58897;51.960;5.582;2022-08-03T08:31:02;101180.78;;;27.02;59.28
12987;BME280;58897;51.960;5.582;2022-08-03T08:33:29;101177.06;;;27.23;57.93
12987;BME280;58897;51.960;5.582;2022-08-03T08:36:16;101181.00;;;26.47;59.54
12987;BME280;58897;51.960;5.582;2022-08-03T08:38:43;101173.44;;;26.91;57.94
12987;BME280;58897;51.960;5.582;2022-08-03T08:41:11;101178.19;;;26.90;58.23
12987;BME280;58897;51.960;5.582;2022-08-03T08:43:38;101181.19;;;26.89;58.32
12987;BME280;58897;51.960;5.582;2022-08-03T08:46:04;101176.44;;;26.36;58.21
12987;BME280;58897;51.960;5.582;2022-08-03T08:48:34;101177.25;;;26.80;57.73
12987;BME280;58897;51.960;5.582;2022-08-03T08:51:01;101171.94;;;27.74;54.67
12987;BME280;58897;51.960;5.582;2022-08-03T08:53:28;101184.34;;;26.98;56.29
12987;BME280;58897;51.960;5.582;2022-08-03T08:55:59;101183.09;;;27.84;53.58
12987;BME280;58897;51.960;5.582;2022-08-03T08:58:36;101188.69;;;28.51;51.46
12987;BME280;58897;51.960;5.582;2022-08-03T09:01:04;101187.22;;;27.76;53.35
12987;BME280;58897;51.960;5.582;2022-08-03T09:03:32;101189.13;;;28.17;52.58
12987;BME280;58897;51.960;5.582;2022-08-03T09:06:00;101188.59;;;28.21;52.00
12987;BME280;58897;51.960;5.582;2022-08-03T09:08:28;101174.31;;;28.79;51.63
12987;BME280;58897;51.960;5.582;2022-08-03T09:10:55;101175.22;;;29.35;49.07
12987;BME280;58897;51.960;5.582;2022-08-03T09:13:22;101180.34;;;30.12;47.86
12987;BME280;58897;51.960;5.582;2022-08-03T09:16:14;101180.31;;;30.22;48.16
12987;BME280;58897;51.960;5.582;2022-08-03T09:18:43;101178.25;;;29.33;48.57
12987;BME280;58897;51.960;5.582;2022-08-03T09:23:59;101185.78;;;29.53;47.96
12987;BME280;58897;51.960;5.582;2022-08-03T09:26:34;101176.94;;;30.25;46.61
12987;BME280;58897;51.960;5.582;2022-08-03T09:29:07;101176.00;;;29.81;47.40
12987;BME280;58897;51.960;5.582;2022-08-03T09:31:42;101174.56;;;29.88;46.67
12987;BME280;58897;51.960;5.582;2022-08-03T09:34:12;101181.47;;;30.06;46.50
12987;BME280;58897;51.960;5.582;2022-08-03T09:36:47;101179.16;;;30.38;45.77
12987;BME280;58897;51.960;5.582;2022-08-03T09:39:16;101170.06;;;31.39;44.92
12987;BME280;58897;51.960;5.582;2022-08-03T09:41:45;101179.91;;;30.54;45.14
12987;BME280;58897;51.960;5.582;2022-08-03T09:44:12;101182.91;;;31.06;43.75
12987;BME280;58897;51.960;5.582;2022-08-03T09:46:53;101184.13;;;30.90;44.34
12987;BME280;58897;51.960;5.582;2022-08-03T09:49:22;101178.06;;;31.22;43.58
12987;BME280;58897;51.960;5.582;2022-08-03T09:51:49;101170.72;;;30.97;44.09
12987;BME280;58897;51.960;5.582;2022-08-03T09:54:35;101173.09;;;31.48;43.40
12987;BME280;58897;51.960;5.582;2022-08-03T09:57:01;101181.50;;;31.09;43.91
12987;BME280;58897;51.960;5.582;2022-08-03T09:59:30;101173.78;;;31.30;43.01
12987;BME280;58897;51.960;5.582;2022-08-03T10:01:57;101175.75;;;30.90;43.62
12987;BME280;58897;51.960;5.582;2022-08-03T10:04:25;101182.13;;;31.01;42.73
12987;BME280;58897;51.960;5.582;2022-08-03T10:07:22;101192.13;;;31.98;41.66
12987;BME280;58897;51.960;5.582;2022-08-03T10:09:54;101182.75;;;30.34;43.90
12987;BME280;58897;51.960;5.582;2022-08-03T10:12:20;101190.28;;;30.92;43.62
12987;BME280;58897;51.960;5.582;2022-08-03T10:14:47;101183.53;;;31.90;42.37
12987;BME280;58897;51.960;5.582;2022-08-03T10:17:13;101190.91;;;32.09;41.38
12987;BME280;58897;51.960;5.582;2022-08-03T10:19:41;101186.00;;;32.62;40.52
12987;BME280;58897;51.960;5.582;2022-08-03T10:22:13;101182.28;;;32.48;41.17
12987;BME280;58897;51.960;5.582;2022-08-03T10:27:18;101186.06;;;31.91;41.38
12987;BME280;58897;51.960;5.582;2022-08-03T10:29:51;101176.19;;;31.46;42.49
12987;BME280;58897;51.960;5.582;2022-08-03T10:32:25;101172.75;;;31.83;41.77
12987;BME280;58897;51.960;5.582;2022-08-03T10:35:04;101169.88;;;31.64;40.94
12987;BME280;58897;51.960;5.582;2022-08-03T10:37:59;101168.59;;;32.47;40.35
12987;BME280;58897;51.960;5.582;2022-08-03T10:40:29;101159.28;;;31.61;40.83
12987;BME280;58897;51.960;5.582;2022-08-03T10:43:26;101158.22;;;31.81;41.30
12987;BME280;58897;51.960;5.582;2022-08-03T10:45:54;101159.25;;;31.90;40.63
12987;BME280;58897;51.960;5.582;2022-08-03T10:48:22;101164.19;;;31.46;41.92
12987;BME280;58897;51.960;5.582;2022-08-03T10:50:49;101159.75;;;32.40;40.66
12987;BME280;58897;51.960;5.582;2022-08-03T10:53:33;101147.84;;;33.54;37.19
12987;BME280;58897;51.960;5.582;2022-08-03T10:56:00;101144.00;;;33.05;38.43
12987;BME280;58897;51.960;5.582;2022-08-03T10:59:05;101144.91;;;32.20;38.64
12987;BME280;58897;51.960;5.582;2022-08-03T11:01:51;101142.84;;;32.50;38.42
12987;BME280;58897;51.960;5.582;2022-08-03T11:04:24;101145.91;;;31.82;39.22
12987;BME280;58897;51.960;5.582;2022-08-03T11:07:20;101146.28;;;32.23;38.91
12987;BME280;58897;51.960;5.582;2022-08-03T11:09:53;101145.34;;;32.51;39.12
12987;BME280;58897;51.960;5.582;2022-08-03T11:12:21;101138.13;;;33.01;37.85
12987;BME280;58897;51.960;5.582;2022-08-03T11:15:04;101139.09;;;32.17;38.95
12987;BME280;58897;51.960;5.582;2022-08-03T11:17:32;101131.50;;;32.97;37.43
12987;BME280;58897;51.960;5.582;2022-08-03T11:20:42;101140.34;;;32.85;37.43
12987;BME280;58897;51.960;5.582;2022-08-03T11:23:09;101144.38;;;32.79;37.48
12987;BME280;58897;51.960;5.582;2022-08-03T11:26:07;101142.09;;;33.00;37.25
12987;BME280;58897;51.960;5.582;2022-08-03T11:28:33;101147.91;;;32.48;37.00
12987;BME280;58897;51.960;5.582;2022-08-03T11:34:10;101141.34;;;33.13;35.10
12987;BME280;58897;51.960;5.582;2022-08-03T11:39:44;101138.38;;;33.37;34.43
12987;BME280;58897;51.960;5.582;2022-08-03T11:44:48;101143.63;;;33.25;34.17
12987;BME280;58897;51.960;5.582;2022-08-03T11:47:16;101147.63;;;33.51;33.99
12987;BME280;58897;51.960;5.582;2022-08-03T11:49:47;101140.31;;;33.82;33.76
12987;BME280;58897;51.960;5.582;2022-08-03T11:52:15;101143.91;;;33.42;34.55
12987;BME280;58897;51.960;5.582;2022-08-03T11:54:42;101145.78;;;33.14;34.59
12987;BME280;58897;51.960;5.582;2022-08-03T11:57:09;101143.03;;;33.60;33.41
12987;BME280;58897;51.960;5.582;2022-08-03T11:59:36;101139.59;;;33.63;33.49
12987;BME280;58897;51.960;5.582;2022-08-03T12:02:11;101128.97;;;33.46;33.99
12987;BME280;58897;51.960;5.582;2022-08-03T12:07:19;101140.56;;;32.89;34.58
12987;BME280;58897;51.960;5.582;2022-08-03T12:10:11;101145.91;;;33.69;32.89
12987;BME280;58897;51.960;5.582;2022-08-03T12:12:39;101136.59;;;33.73;33.03
12987;BME280;58897;51.960;5.582;2022-08-03T12:15:11;101137.84;;;34.08;33.27
12987;BME280;58897;51.960;5.582;2022-08-03T12:17:39;101132.66;;;34.01;33.11
12987;BME280;58897;51.960;5.582;2022-08-03T12:20:08;101131.97;;;34.09;32.10
12987;BME280;58897;51.960;5.582;2022-08-03T12:22:37;101137.84;;;34.71;32.04
12987;BME280;58897;51.960;5.582;2022-08-03T12:25:04;101123.91;;;34.44;32.36
12987;BME280;58897;51.960;5.582;2022-08-03T12:27:31;101130.53;;;34.48;32.35
12987;BME280;58897;51.960;5.582;2022-08-03T12:29:59;101130.13;;;34.41;32.60
12987;BME280;58897;51.960;5.582;2022-08-03T12:32:30;101128.97;;;34.42;32.03
12987;BME280;58897;51.960;5.582;2022-08-03T12:34:57;101130.53;;;33.52;33.47
12987;BME280;58897;51.960;5.582;2022-08-03T12:37:27;101135.88;;;33.68;33.95
12987;BME280;58897;51.960;5.582;2022-08-03T12:39:55;101121.78;;;33.86;34.24
12987;BME280;58897;51.960;5.582;2022-08-03T12:42:31;101124.53;;;34.00;33.30
12987;BME280;58897;51.960;5.582;2022-08-03T12:44:58;101126.84;;;33.71;33.85
12987;BME280;58897;51.960;5.582;2022-08-03T12:47:24;101137.44;;;33.74;33.69
12987;BME280;58897;51.960;5.582;2022-08-03T12:49:52;101138.16;;;33.93;34.03
12987;BME280;58897;51.960;5.582;2022-08-03T12:52:20;101136.38;;;33.56;34.96
12987;BME280;58897;51.960;5.582;2022-08-03T12:54:57;101135.91;;;33.49;34.63
12987;BME280;58897;51.960;5.582;2022-08-03T12:57:25;101132.44;;;33.71;35.23
12987;BME280;58897;51.960;5.582;2022-08-03T13:00:14;101152.44;;;33.18;36.16
12987;BME280;58897;51.960;5.582;2022-08-03T13:02:58;101138.72;;;33.49;35.95
12987;BME280;58897;51.960;5.582;2022-08-03T13:05:44;101142.41;;;32.61;36.86
12987;BME280;58897;51.960;5.582;2022-08-03T13:08:18;101130.00;;;33.50;37.12
12987;BME280;58897;51.960;5.582;2022-08-03T13:10:45;101133.47;;;33.75;35.82
12987;BME280;58897;51.960;5.582;2022-08-03T13:13:12;101138.56;;;33.73;35.84
12987;BME280;58897;51.960;5.582;2022-08-03T13:15:39;101139.66;;;33.44;36.25
12987;BME280;58897;51.960;5.582;2022-08-03T13:18:13;101137.47;;;33.09;37.12
12987;BME280;58897;51.960;5.582;2022-08-03T13:20:42;101142.06;;;33.19;36.41
12987;BME280;58897;51.960;5.582;2022-08-03T13:23:09;101130.41;;;32.79;38.20
12987;BME280;58897;51.960;5.582;2022-08-03T13:25:47;101136.75;;;32.85;38.14
12987;BME280;58897;51.960;5.582;2022-08-03T13:28:21;101128.28;;;33.04;37.67
12987;BME280;58897;51.960;5.582;2022-08-03T13:30:48;101133.09;;;32.84;38.82
12987;BME280;58897;51.960;5.582;2022-08-03T13:33:14;101124.91;;;32.88;38.09
12987;BME280;58897;51.960;5.582;2022-08-03T13:35:41;101139.78;;;33.21;37.84
12987;BME280;58897;51.960;5.582;2022-08-03T13:38:07;101133.88;;;32.53;39.14
12987;BME280;58897;51.960;5.582;2022-08-03T13:40:33;101123.78;;;32.89;38.93